METAR AND TAF INFORMATION
METAR FOR WIII
WIII 260500Z 33006KT 290V020 9999 SCT021 31/26 Q1010 NOSIG
WIII 260430Z 31008KT 9999 SCT022 30/26 Q1010 NOSIG
WIII 260400Z 30005KT 9999 SCT020 29/26 Q1011 NOSIG
WIII 260330Z 32005KT 9999 SCT020 29/26 Q1011 NOSIG
WIII 260300Z VRB04KT 9999 SCT020 28/26 Q1011 NOSIG
WIII 260230Z VRB02KT 9999 SCT020 28/27 Q1011 NOSIG
WIII 260200Z VRB02KT 9000 SCT020 28/26 Q1011 NOSIG

TAF WIII 260500Z 2606/2712 30010KT 9000 SCT020
BECMG 2612/2614 24005KT 5000 HZ

 AIRPORT MAP

 RUNWAY INFORMATION
Runway 07L Runway length 11812 ft Runway width 197 ft
Runway elevation 29 ft Runway displaced threshold 0 ft Runway heading 68
Runway 25R Runway length 11812 ft Runway width 197 ft
Runway elevation 21 ft Runway displaced threshold 0 ft Runway heading 248
Runway 07R Runway length 12008 ft Runway width 197 ft
Runway elevation 34 ft Runway displaced threshold 0 ft Runway heading 68
Runway 25L Runway length 12008 ft Runway width 197 ft
Runway elevation 27 ft Runway displaced threshold 0 ft Runway heading 248

 AIRPORT FREQUENCIES
Type APP Name JAKARTA AP Frequency 119.75 MHZ
Type ARR Name JAKARTA AR Frequency 125.45 MHZ
Type ATIS Name ATIS Frequency 126.85 MHZ
Type CLD Name CLNC DEL Frequency 121.95 MHZ
Type FSS Name JAKARTA CE Frequency 129.7 MHZ
Type GND Name GND Frequency 121.6 MHZ
Type INFO Name PABELOKAN Frequency 129.8 MHZ
Type TWR Name TWR Frequency 118.75 MHZ

 AIRPORT NEAR NAVIGATION AIDS
Type VOR-DME Name Cengkareng Frequency 113600 KHZ
Type VOR-DME Name Jakarta Frequency 114600 KHZ

-